Airfield :
LOGIN :

Register | Disclaimer

   EN    FR    IT 

 










Legend :    VFR   Marginal VFR   IFR   Intensive IFR   Very Intensive IFR
Visi :
Ceiling :
>= 8 km
>= 3000ft
5 to 8 km
1000 to 3000 ft
1500m to 5 km
500 to 1000 ft
800 to 1500m
200 to 500 ft
< 800m
< 200 ft
Symbols :   Thunderstorms  Fog  Heavy snow  Heavy precipitations  Wind > 20 kt
SIGMETs :     Misc.  Thunderstorms  Icing  Turbulence  Mountain Waves  Volcanic Ashes






- Airport Elevation : 39 ft


ETNH - Hohn AB

CURRENT METAR :
  • 281620Z 21005KT 9999 FEW035 BKN120 11/07 Q1004 BLU

EXPIRED METARs :
  • 281600Z 21005KT 9999 FEW035 SCT140 12/07 Q1004 BLU+FCST CNL
  • 281520Z 21006KT 9999 SCT035 12/07 Q1004 BLU+BLU+ TEMPO WHT
  • 281420Z 22008G19KT 9999 BKN030 13/07 Q1004 BLU BLU+ TEMPO WHT

TAF TAF ETNH
Valid from the 28 at 12:00 until the 29 at 00:00 UTC


281100Z 2812/2824 20010KT 9999 NSW SCT020 SCT040
TEMPO 2812/2818 23015G28KT 5000 SHRA FEW010 BKN020CB
TEMPO 2818/2824 22012G22KT 4000 SHRA BKN008 BKN015CB BY ETGL



MET'MAP, your aeronautical weather chart ! - Copyright ORBIFLY December 2007 - Disclaimer

ORBIFLY MET'MAP TEAM :

Programming & Development : Alexandra Zaïnal
Concept & original design : Baudouin d'Aumeries
Assistance for programming : Marc-Olivier Méhu
Technical & hardware support : Manuel Goepfert

Contact : metmap@orbifly.com




SOURCES & CREDITS :

   NOAA